Vihari Weather



Vihari's Current Weather

Temprature 37.15o scattered clouds

scattered clouds

Rain: 0 %

Min Temprature37.15o
Max Temprature37.15o
Humidity30
Wind Speed8.74 m/h
Sun Rise05:11:02
Sun Set19:15:26
Current Time: 26-Jun-2019 15:38:16
Lat/Lon: 30.03, 72.35




Vihari's Geo Location



Vihari's Weather Forecast

Time Overall Temp Min Temp Max Temp Humidity Wind Speed Rain
26-Jun-2019 (Wed)
17:00:00 scattered clouds 31.620 31.620 37.150 30 8.74 m/h 0 %
20:00:00 scattered clouds 34.300 34.300 38.447 25 2.77 m/h 0 %
23:00:00 few clouds 34.480 34.480 37.240 25 1.46 m/h 0 %
27-Jun-2019 (Thu)
02:00:00 clear sky 34.300 34.300 35.679 29 2.94 m/h 0 %
05:00:00 clear sky 35.165 35.165 35.165 33 4.47 m/h 0 %
08:00:00 clear sky 37.950 37.950 37.950 32 6.34 m/h 0 %
11:00:00 clear sky 44.474 44.474 44.474 18 6.08 m/h 0 %
14:00:00 clear sky 46.650 46.650 46.650 12 4.66 m/h 0 %
17:00:00 broken clouds 40.180 40.180 40.180 20 9.19 m/h 0 %
20:00:00 light rain 38.594 38.594 38.594 23 3.61 m/h 50 %
23:00:00 broken clouds 36.935 36.935 36.935 25 3.79 m/h 0 %
28-Jun-2019 (Fri)
02:00:00 clear sky 36.628 36.628 36.628 27 4.71 m/h 0 %
05:00:00 clear sky 34.228 34.228 34.228 42 6.11 m/h 0 %
08:00:00 clear sky 35.049 35.049 35.049 39 6.19 m/h 0 %
11:00:00 clear sky 40.425 40.425 40.425 27 5.15 m/h 0 %
14:00:00 clear sky 44.431 44.431 44.431 18 4.48 m/h 0 %
17:00:00 clear sky 44.950 44.950 44.950 15 5.07 m/h 0 %
20:00:00 clear sky 41.550 41.550 41.550 18 5.02 m/h 0 %
23:00:00 clear sky 39.272 39.272 39.272 23 6.31 m/h 0 %
29-Jun-2019 (Sat)
02:00:00 clear sky 37.072 37.072 37.072 31 6.96 m/h 0 %
05:00:00 clear sky 33.929 33.929 33.929 44 7.86 m/h 0 %
08:00:00 clear sky 34.547 34.547 34.547 41 7.74 m/h 0 %
11:00:00 clear sky 39.950 39.950 39.950 30 6.88 m/h 0 %
14:00:00 clear sky 45.750 45.750 45.750 13 6.03 m/h 0 %
17:00:00 clear sky 45.491 45.491 45.491 12 6.2 m/h 0 %
20:00:00 clear sky 41.350 41.350 41.350 17 4.45 m/h 0 %
23:00:00 clear sky 39.050 39.050 39.050 23 5.79 m/h 0 %
30-Jun-2019 (Sun)
02:00:00 clear sky 37.176 37.176 37.176 27 7.01 m/h 0 %
05:00:00 clear sky 33.812 33.812 33.812 49 8.1 m/h 0 %
08:00:00 clear sky 35.052 35.052 35.052 45 8.21 m/h 0 %
11:00:00 clear sky 41.718 41.718 41.718 25 7.08 m/h 0 %
14:00:00 clear sky 45.808 45.808 45.808 15 6 m/h 0 %
17:00:00 clear sky 45.750 45.750 45.750 13 5.89 m/h 0 %
20:00:00 clear sky 41.950 41.950 41.950 17 4.89 m/h 0 %
23:00:00 clear sky 39.950 39.950 39.950 18 6.44 m/h 0 %
01-Jul-2019 (Mon)
02:00:00 clear sky 37.250 37.250 37.250 30 7.72 m/h 0 %
05:00:00 clear sky 33.735 33.735 33.735 52 8.75 m/h 0 %
08:00:00 clear sky 34.750 34.750 34.750 47 8.27 m/h 0 %
11:00:00 clear sky 41.050 41.050 41.050 29 7.77 m/h 0 %
14:00:00 clear sky 46.250 46.250 46.250 16 6.32 m/h 0 %

Famous Cities (60)